sensor_id;sensor_type;location;lat;lon;timestamp;temperature;humidity
12655;DHT22;6392;44.644;11.448;2022-11-20T00:01:56;9.90;99.90
12655;DHT22;6392;44.644;11.448;2022-11-20T00:04:23;9.90;99.90
12655;DHT22;6392;44.644;11.448;2022-11-20T00:06:50;9.90;99.90
12655;DHT22;6392;44.644;11.448;2022-11-20T00:09:18;9.90;99.90
12655;DHT22;6392;44.644;11.448;2022-11-20T00:11:45;9.90;99.90
12655;DHT22;6392;44.644;11.448;2022-11-20T00:14:13;9.90;99.90
12655;DHT22;6392;44.644;11.448;2022-11-20T00:16:40;9.90;99.90
12655;DHT22;6392;44.644;11.448;2022-11-20T00:19:07;9.80;99.90
12655;DHT22;6392;44.644;11.448;2022-11-20T00:21:34;9.80;99.90
12655;DHT22;6392;44.644;11.448;2022-11-20T00:24:01;9.80;99.90
12655;DHT22;6392;44.644;11.448;2022-11-20T00:26:29;9.70;99.90
12655;DHT22;6392;44.644;11.448;2022-11-20T00:28:58;9.70;99.90
12655;DHT22;6392;44.644;11.448;2022-11-20T00:31:27;9.70;99.90
12655;DHT22;6392;44.644;11.448;2022-11-20T00:33:54;9.70;99.90
12655;DHT22;6392;44.644;11.448;2022-11-20T00:36:23;9.70;99.90
12655;DHT22;6392;44.644;11.448;2022-11-20T00:38:51;9.70;99.90
12655;DHT22;6392;44.644;11.448;2022-11-20T00:41:19;9.70;99.90
12655;DHT22;6392;44.644;11.448;2022-11-20T00:43:46;9.70;99.90
12655;DHT22;6392;44.644;11.448;2022-11-20T00:46:15;9.70;99.90
12655;DHT22;6392;44.644;11.448;2022-11-20T00:48:44;9.60;99.90
12655;DHT22;6392;44.644;11.448;2022-11-20T00:51:12;9.60;99.90
12655;DHT22;6392;44.644;11.448;2022-11-20T00:53:40;9.50;99.90
12655;DHT22;6392;44.644;11.448;2022-11-20T00:56:10;9.50;99.90
12655;DHT22;6392;44.644;11.448;2022-11-20T00:58:39;9.50;99.90
12655;DHT22;6392;44.644;11.448;2022-11-20T01:01:08;9.40;99.90
12655;DHT22;6392;44.644;11.448;2022-11-20T01:03:36;9.40;99.90
12655;DHT22;6392;44.644;11.448;2022-11-20T01:06:07;9.40;99.90
12655;DHT22;6392;44.644;11.448;2022-11-20T01:08:35;9.40;99.90
12655;DHT22;6392;44.644;11.448;2022-11-20T01:11:05;9.40;99.90
12655;DHT22;6392;44.644;11.448;2022-11-20T01:13:33;9.40;99.90
12655;DHT22;6392;44.644;11.448;2022-11-20T01:16:04;9.40;99.90
12655;DHT22;6392;44.644;11.448;2022-11-20T01:18:31;9.40;99.90
12655;DHT22;6392;44.644;11.448;2022-11-20T01:21:01;9.40;99.90
12655;DHT22;6392;44.644;11.448;2022-11-20T01:23:32;9.40;99.90
12655;DHT22;6392;44.644;11.448;2022-11-20T01:26:00;9.40;99.90
12655;DHT22;6392;44.644;11.448;2022-11-20T01:28:28;9.40;99.90
12655;DHT22;6392;44.644;11.448;2022-11-20T01:30:56;9.30;99.90
12655;DHT22;6392;44.644;11.448;2022-11-20T01:33:23;9.30;99.90
12655;DHT22;6392;44.644;11.448;2022-11-20T01:35:50;9.30;99.90
12655;DHT22;6392;44.644;11.448;2022-11-20T01:38:17;9.30;99.90
12655;DHT22;6392;44.644;11.448;2022-11-20T01:40:53;9.30;99.90
12655;DHT22;6392;44.644;11.448;2022-11-20T01:43:21;9.30;99.90
12655;DHT22;6392;44.644;11.448;2022-11-20T01:46:06;9.30;99.90
12655;DHT22;6392;44.644;11.448;2022-11-20T01:48:37;9.30;99.90
12655;DHT22;6392;44.644;11.448;2022-11-20T01:51:10;9.30;99.90
12655;DHT22;6392;44.644;11.448;2022-11-20T01:53:38;9.30;99.90
12655;DHT22;6392;44.644;11.448;2022-11-20T01:56:09;9.20;99.90
12655;DHT22;6392;44.644;11.448;2022-11-20T01:58:42;9.20;99.90
12655;DHT22;6392;44.644;11.448;2022-11-20T02:01:11;9.20;99.90
12655;DHT22;6392;44.644;11.448;2022-11-20T02:03:39;9.10;99.90
12655;DHT22;6392;44.644;11.448;2022-11-20T02:06:11;9.10;99.90
12655;DHT22;6392;44.644;11.448;2022-11-20T02:08:40;9.10;99.90
12655;DHT22;6392;44.644;11.448;2022-11-20T02:11:08;9.10;99.90
12655;DHT22;6392;44.644;11.448;2022-11-20T02:13:36;9.30;99.90
12655;DHT22;6392;44.644;11.448;2022-11-20T02:16:17;9.10;99.90
12655;DHT22;6392;44.644;11.448;2022-11-20T02:18:46;9.10;99.90
12655;DHT22;6392;44.644;11.448;2022-11-20T02:21:26;9.10;99.90
12655;DHT22;6392;44.644;11.448;2022-11-20T02:24:01;9.10;99.90
12655;DHT22;6392;44.644;11.448;2022-11-20T02:26:30;9.10;99.90
12655;DHT22;6392;44.644;11.448;2022-11-20T02:28:58;9.10;99.90
12655;DHT22;6392;44.644;11.448;2022-11-20T02:31:27;9.00;99.90
12655;DHT22;6392;44.644;11.448;2022-11-20T02:33:55;9.00;99.90
12655;DHT22;6392;44.644;11.448;2022-11-20T02:36:24;9.00;99.90
12655;DHT22;6392;44.644;11.448;2022-11-20T02:38:53;9.00;99.90
12655;DHT22;6392;44.644;11.448;2022-11-20T02:41:21;9.00;99.90
12655;DHT22;6392;44.644;11.448;2022-11-20T02:43:56;9.00;99.90
12655;DHT22;6392;44.644;11.448;2022-11-20T02:46:24;9.00;99.90
12655;DHT22;6392;44.644;11.448;2022-11-20T02:48:51;9.00;99.90
12655;DHT22;6392;44.644;11.448;2022-11-20T02:51:18;9.00;99.90
12655;DHT22;6392;44.644;11.448;2022-11-20T02:53:45;9.00;99.90
12655;DHT22;6392;44.644;11.448;2022-11-20T02:56:12;9.00;99.90
12655;DHT22;6392;44.644;11.448;2022-11-20T02:58:40;8.90;99.90
12655;DHT22;6392;44.644;11.448;2022-11-20T03:01:07;8.90;99.90
12655;DHT22;6392;44.644;11.448;2022-11-20T03:03:35;8.90;99.90
12655;DHT22;6392;44.644;11.448;2022-11-20T03:06:02;8.90;99.90
12655;DHT22;6392;44.644;11.448;2022-11-20T03:08:29;8.90;99.90
12655;DHT22;6392;44.644;11.448;2022-11-20T03:10:56;8.90;99.90
12655;DHT22;6392;44.644;11.448;2022-11-20T03:13:25;8.80;99.90
12655;DHT22;6392;44.644;11.448;2022-11-20T03:15:53;8.80;99.90
12655;DHT22;6392;44.644;11.448;2022-11-20T03:18:20;8.80;99.90
12655;DHT22;6392;44.644;11.448;2022-11-20T03:20:47;8.80;99.90
12655;DHT22;6392;44.644;11.448;2022-11-20T03:23:14;8.80;99.90
12655;DHT22;6392;44.644;11.448;2022-11-20T03:25:41;8.80;99.90
12655;DHT22;6392;44.644;11.448;2022-11-20T03:28:09;8.80;99.90
12655;DHT22;6392;44.644;11.448;2022-11-20T03:30:36;8.80;99.90
12655;DHT22;6392;44.644;11.448;2022-11-20T03:33:04;8.80;99.90
12655;DHT22;6392;44.644;11.448;2022-11-20T03:35:31;8.80;99.90
12655;DHT22;6392;44.644;11.448;2022-11-20T03:37:58;8.70;99.90
12655;DHT22;6392;44.644;11.448;2022-11-20T03:40:25;8.70;99.90
12655;DHT22;6392;44.644;11.448;2022-11-20T03:42:52;8.70;99.90
12655;DHT22;6392;44.644;11.448;2022-11-20T03:45:19;8.70;99.90
12655;DHT22;6392;44.644;11.448;2022-11-20T03:47:46;8.70;99.90
12655;DHT22;6392;44.644;11.448;2022-11-20T03:50:15;8.70;99.90
12655;DHT22;6392;44.644;11.448;2022-11-20T03:52:42;8.70;99.90
12655;DHT22;6392;44.644;11.448;2022-11-20T03:55:09;8.70;99.90
12655;DHT22;6392;44.644;11.448;2022-11-20T03:57:36;8.60;99.90
12655;DHT22;6392;44.644;11.448;2022-11-20T04:00:04;8.60;99.90
12655;DHT22;6392;44.644;11.448;2022-11-20T04:02:31;8.60;99.90
12655;DHT22;6392;44.644;11.448;2022-11-20T04:04:58;8.70;99.90
12655;DHT22;6392;44.644;11.448;2022-11-20T04:07:27;8.60;99.90
12655;DHT22;6392;44.644;11.448;2022-11-20T04:09:54;8.60;99.90
12655;DHT22;6392;44.644;11.448;2022-11-20T04:12:21;8.60;99.90
12655;DHT22;6392;44.644;11.448;2022-11-20T04:14:48;8.60;99.90
12655;DHT22;6392;44.644;11.448;2022-11-20T04:17:15;8.50;99.90
12655;DHT22;6392;44.644;11.448;2022-11-20T04:19:42;8.50;99.90
12655;DHT22;6392;44.644;11.448;2022-11-20T04:22:09;8.50;99.90
12655;DHT22;6392;44.644;11.448;2022-11-20T04:24:38;8.50;99.90
12655;DHT22;6392;44.644;11.448;2022-11-20T04:27:05;8.40;99.90
12655;DHT22;6392;44.644;11.448;2022-11-20T04:29:32;8.40;99.90
12655;DHT22;6392;44.644;11.448;2022-11-20T04:31:59;8.40;99.90
12655;DHT22;6392;44.644;11.448;2022-11-20T04:34:26;8.30;99.90
12655;DHT22;6392;44.644;11.448;2022-11-20T04:36:53;8.30;99.90
12655;DHT22;6392;44.644;11.448;2022-11-20T04:39:20;8.30;99.90
12655;DHT22;6392;44.644;11.448;2022-11-20T04:41:49;8.30;99.90
12655;DHT22;6392;44.644;11.448;2022-11-20T04:44:36;8.30;99.90
12655;DHT22;6392;44.644;11.448;2022-11-20T04:47:03;8.20;99.90
12655;DHT22;6392;44.644;11.448;2022-11-20T04:49:30;8.20;99.90
12655;DHT22;6392;44.644;11.448;2022-11-20T04:51:58;8.20;99.90
12655;DHT22;6392;44.644;11.448;2022-11-20T04:54:25;8.30;99.90
12655;DHT22;6392;44.644;11.448;2022-11-20T04:56:53;8.20;99.90
12655;DHT22;6392;44.644;11.448;2022-11-20T04:59:20;8.20;99.90
12655;DHT22;6392;44.644;11.448;2022-11-20T05:01:47;8.20;99.90
12655;DHT22;6392;44.644;11.448;2022-11-20T05:04:14;8.20;99.90
12655;DHT22;6392;44.644;11.448;2022-11-20T05:06:41;8.20;99.90
12655;DHT22;6392;44.644;11.448;2022-11-20T05:09:09;8.20;99.90
12655;DHT22;6392;44.644;11.448;2022-11-20T05:11:36;8.10;99.90
12655;DHT22;6392;44.644;11.448;2022-11-20T05:14:04;8.10;99.90
12655;DHT22;6392;44.644;11.448;2022-11-20T05:16:34;8.10;99.90
12655;DHT22;6392;44.644;11.448;2022-11-20T05:19:01;8.10;99.90
12655;DHT22;6392;44.644;11.448;2022-11-20T05:21:30;8.10;99.90
12655;DHT22;6392;44.644;11.448;2022-11-20T05:23:57;8.00;99.90
12655;DHT22;6392;44.644;11.448;2022-11-20T05:26:24;8.00;99.90
12655;DHT22;6392;44.644;11.448;2022-11-20T05:28:51;8.00;99.90
12655;DHT22;6392;44.644;11.448;2022-11-20T05:31:22;8.00;99.90
12655;DHT22;6392;44.644;11.448;2022-11-20T05:33:49;8.10;99.90
12655;DHT22;6392;44.644;11.448;2022-11-20T05:36:17;8.00;99.90
12655;DHT22;6392;44.644;11.448;2022-11-20T05:38:44;8.00;99.90
12655;DHT22;6392;44.644;11.448;2022-11-20T05:41:13;8.00;99.90
12655;DHT22;6392;44.644;11.448;2022-11-20T05:43:41;8.00;99.90
12655;DHT22;6392;44.644;11.448;2022-11-20T05:46:10;8.00;99.90
12655;DHT22;6392;44.644;11.448;2022-11-20T05:48:40;8.00;99.90
12655;DHT22;6392;44.644;11.448;2022-11-20T05:51:09;8.00;99.90
12655;DHT22;6392;44.644;11.448;2022-11-20T05:53:37;8.00;99.90
12655;DHT22;6392;44.644;11.448;2022-11-20T05:56:08;8.00;99.90
12655;DHT22;6392;44.644;11.448;2022-11-20T05:58:36;8.00;99.90
12655;DHT22;6392;44.644;11.448;2022-11-20T06:01:06;7.90;99.90
12655;DHT22;6392;44.644;11.448;2022-11-20T06:03:33;7.90;99.90
12655;DHT22;6392;44.644;11.448;2022-11-20T06:06:03;7.90;99.90
12655;DHT22;6392;44.644;11.448;2022-11-20T06:08:30;7.80;99.90
12655;DHT22;6392;44.644;11.448;2022-11-20T06:10:58;7.70;99.90
12655;DHT22;6392;44.644;11.448;2022-11-20T06:13:25;7.70;99.90
12655;DHT22;6392;44.644;11.448;2022-11-20T06:15:52;7.60;99.90
12655;DHT22;6392;44.644;11.448;2022-11-20T06:18:20;7.60;99.90
12655;DHT22;6392;44.644;11.448;2022-11-20T06:20:47;7.60;99.90
12655;DHT22;6392;44.644;11.448;2022-11-20T06:23:16;7.60;99.90
12655;DHT22;6392;44.644;11.448;2022-11-20T06:25:43;7.60;99.90
12655;DHT22;6392;44.644;11.448;2022-11-20T06:28:10;7.60;99.90
12655;DHT22;6392;44.644;11.448;2022-11-20T06:30:37;7.50;99.90
12655;DHT22;6392;44.644;11.448;2022-11-20T06:33:04;7.50;99.90
12655;DHT22;6392;44.644;11.448;2022-11-20T06:35:31;7.60;99.90
12655;DHT22;6392;44.644;11.448;2022-11-20T06:37:58;7.60;99.90
12655;DHT22;6392;44.644;11.448;2022-11-20T06:40:26;7.60;99.90
12655;DHT22;6392;44.644;11.448;2022-11-20T06:42:54;7.60;99.90
12655;DHT22;6392;44.644;11.448;2022-11-20T06:45:21;7.60;99.90
12655;DHT22;6392;44.644;11.448;2022-11-20T06:47:48;7.60;99.90
12655;DHT22;6392;44.644;11.448;2022-11-20T06:50:15;7.60;99.90
12655;DHT22;6392;44.644;11.448;2022-11-20T06:52:42;7.60;99.90
12655;DHT22;6392;44.644;11.448;2022-11-20T06:55:10;7.60;99.90
12655;DHT22;6392;44.644;11.448;2022-11-20T06:57:38;7.60;99.90
12655;DHT22;6392;44.644;11.448;2022-11-20T07:00:06;7.50;99.90
12655;DHT22;6392;44.644;11.448;2022-11-20T07:02:33;7.50;99.90
12655;DHT22;6392;44.644;11.448;2022-11-20T07:05:00;7.50;99.90
12655;DHT22;6392;44.644;11.448;2022-11-20T07:07:27;7.50;99.90
12655;DHT22;6392;44.644;11.448;2022-11-20T07:09:55;7.50;99.90
12655;DHT22;6392;44.644;11.448;2022-11-20T07:12:22;7.50;99.90
12655;DHT22;6392;44.644;11.448;2022-11-20T07:14:51;7.60;99.90
12655;DHT22;6392;44.644;11.448;2022-11-20T07:17:18;7.60;99.90
12655;DHT22;6392;44.644;11.448;2022-11-20T07:19:45;7.60;99.90
12655;DHT22;6392;44.644;11.448;2022-11-20T07:22:12;7.60;99.90
12655;DHT22;6392;44.644;11.448;2022-11-20T07:24:39;7.70;99.90
12655;DHT22;6392;44.644;11.448;2022-11-20T07:27:06;7.80;99.90
12655;DHT22;6392;44.644;11.448;2022-11-20T07:29:33;7.80;99.90
12655;DHT22;6392;44.644;11.448;2022-11-20T07:32:02;7.80;99.90
12655;DHT22;6392;44.644;11.448;2022-11-20T07:34:30;7.80;99.90
12655;DHT22;6392;44.644;11.448;2022-11-20T07:36:57;7.90;99.90
12655;DHT22;6392;44.644;11.448;2022-11-20T07:39:24;7.90;99.90
12655;DHT22;6392;44.644;11.448;2022-11-20T07:41:51;7.90;99.90
12655;DHT22;6392;44.644;11.448;2022-11-20T07:44:18;8.00;99.90
12655;DHT22;6392;44.644;11.448;2022-11-20T07:46:46;8.00;99.90
12655;DHT22;6392;44.644;11.448;2022-11-20T07:49:14;8.10;99.90
12655;DHT22;6392;44.644;11.448;2022-11-20T07:51:41;8.10;99.90
12655;DHT22;6392;44.644;11.448;2022-11-20T07:54:08;8.20;99.90
12655;DHT22;6392;44.644;11.448;2022-11-20T07:56:35;8.20;99.90
12655;DHT22;6392;44.644;11.448;2022-11-20T07:59:03;8.30;99.90
12655;DHT22;6392;44.644;11.448;2022-11-20T08:01:30;8.30;99.90
12655;DHT22;6392;44.644;11.448;2022-11-20T08:03:57;8.40;99.90
12655;DHT22;6392;44.644;11.448;2022-11-20T08:06:26;8.40;99.90
12655;DHT22;6392;44.644;11.448;2022-11-20T08:08:53;8.50;99.90
12655;DHT22;6392;44.644;11.448;2022-11-20T08:11:20;8.50;99.90
12655;DHT22;6392;44.644;11.448;2022-11-20T08:14:05;8.60;99.90
12655;DHT22;6392;44.644;11.448;2022-11-20T08:16:43;8.70;99.90
12655;DHT22;6392;44.644;11.448;2022-11-20T08:19:10;8.70;99.90
12655;DHT22;6392;44.644;11.448;2022-11-20T08:21:39;8.80;99.90
12655;DHT22;6392;44.644;11.448;2022-11-20T08:24:07;8.90;99.90
12655;DHT22;6392;44.644;11.448;2022-11-20T08:26:35;8.90;99.90
12655;DHT22;6392;44.644;11.448;2022-11-20T08:29:03;9.00;99.90
12655;DHT22;6392;44.644;11.448;2022-11-20T08:31:31;9.10;99.90
12655;DHT22;6392;44.644;11.448;2022-11-20T08:33:58;9.10;99.90
12655;DHT22;6392;44.644;11.448;2022-11-20T08:36:25;9.20;99.90
12655;DHT22;6392;44.644;11.448;2022-11-20T08:38:55;9.20;99.90
12655;DHT22;6392;44.644;11.448;2022-11-20T08:41:22;9.20;99.90
12655;DHT22;6392;44.644;11.448;2022-11-20T08:43:54;9.30;99.90
12655;DHT22;6392;44.644;11.448;2022-11-20T08:46:23;9.30;99.90
12655;DHT22;6392;44.644;11.448;2022-11-20T08:48:50;9.40;99.90
12655;DHT22;6392;44.644;11.448;2022-11-20T08:51:17;9.40;99.90
12655;DHT22;6392;44.644;11.448;2022-11-20T08:53:44;9.50;99.90
12655;DHT22;6392;44.644;11.448;2022-11-20T08:56:13;9.50;99.90
12655;DHT22;6392;44.644;11.448;2022-11-20T08:58:40;9.60;99.90
12655;DHT22;6392;44.644;11.448;2022-11-20T09:01:07;9.60;99.90
12655;DHT22;6392;44.644;11.448;2022-11-20T09:03:34;9.60;99.90
12655;DHT22;6392;44.644;11.448;2022-11-20T09:06:03;9.70;99.90
12655;DHT22;6392;44.644;11.448;2022-11-20T09:08:30;9.70;99.90
12655;DHT22;6392;44.644;11.448;2022-11-20T09:10:59;9.70;99.90
12655;DHT22;6392;44.644;11.448;2022-11-20T09:13:28;9.80;99.90
12655;DHT22;6392;44.644;11.448;2022-11-20T09:15:56;9.90;99.90
12655;DHT22;6392;44.644;11.448;2022-11-20T09:18:24;10.00;99.90
12655;DHT22;6392;44.644;11.448;2022-11-20T09:20:55;10.00;99.90
12655;DHT22;6392;44.644;11.448;2022-11-20T09:23:22;10.10;99.90
12655;DHT22;6392;44.644;11.448;2022-11-20T09:25:50;10.10;99.90
12655;DHT22;6392;44.644;11.448;2022-11-20T09:28:18;10.20;99.90
12655;DHT22;6392;44.644;11.448;2022-11-20T09:30:46;10.30;99.90
12655;DHT22;6392;44.644;11.448;2022-11-20T09:33:13;10.30;99.90
12655;DHT22;6392;44.644;11.448;2022-11-20T09:35:40;10.30;99.90
12655;DHT22;6392;44.644;11.448;2022-11-20T09:38:09;10.30;99.90
12655;DHT22;6392;44.644;11.448;2022-11-20T09:40:39;10.40;99.90
12655;DHT22;6392;44.644;11.448;2022-11-20T09:43:12;10.40;99.90
12655;DHT22;6392;44.644;11.448;2022-11-20T09:45:54;10.40;99.90
12655;DHT22;6392;44.644;11.448;2022-11-20T09:51:39;10.50;99.90
12655;DHT22;6392;44.644;11.448;2022-11-20T09:54:15;10.60;99.90
12655;DHT22;6392;44.644;11.448;2022-11-20T09:56:46;10.60;99.90
12655;DHT22;6392;44.644;11.448;2022-11-20T09:59:27;10.70;99.90
12655;DHT22;6392;44.644;11.448;2022-11-20T10:02:00;10.70;99.90
12655;DHT22;6392;44.644;11.448;2022-11-20T10:04:30;10.80;99.90
12655;DHT22;6392;44.644;11.448;2022-11-20T10:07:07;10.80;99.90
12655;DHT22;6392;44.644;11.448;2022-11-20T10:09:40;10.90;99.90
12655;DHT22;6392;44.644;11.448;2022-11-20T10:12:19;10.90;99.90
12655;DHT22;6392;44.644;11.448;2022-11-20T10:15:03;11.00;99.90
12655;DHT22;6392;44.644;11.448;2022-11-20T10:17:52;11.00;99.90
12655;DHT22;6392;44.644;11.448;2022-11-20T10:20:28;11.10;99.90
12655;DHT22;6392;44.644;11.448;2022-11-20T10:23:20;11.10;99.90
12655;DHT22;6392;44.644;11.448;2022-11-20T10:25:56;11.10;99.90
12655;DHT22;6392;44.644;11.448;2022-11-20T10:28:35;11.20;99.90
12655;DHT22;6392;44.644;11.448;2022-11-20T10:31:11;11.20;99.90
12655;DHT22;6392;44.644;11.448;2022-11-20T10:33:44;11.20;99.90
12655;DHT22;6392;44.644;11.448;2022-11-20T10:36:16;11.30;99.90
12655;DHT22;6392;44.644;11.448;2022-11-20T10:38:50;11.30;99.90
12655;DHT22;6392;44.644;11.448;2022-11-20T10:41:23;11.30;99.90
12655;DHT22;6392;44.644;11.448;2022-11-20T10:43:54;11.40;99.90
12655;DHT22;6392;44.644;11.448;2022-11-20T10:46:23;11.40;99.90
12655;DHT22;6392;44.644;11.448;2022-11-20T10:48:53;11.40;99.90
12655;DHT22;6392;44.644;11.448;2022-11-20T10:51:33;11.40;99.90
12655;DHT22;6392;44.644;11.448;2022-11-20T10:54:12;11.50;99.90
12655;DHT22;6392;44.644;11.448;2022-11-20T10:56:56;11.60;99.90
12655;DHT22;6392;44.644;11.448;2022-11-20T10:59:46;11.60;99.90
12655;DHT22;6392;44.644;11.448;2022-11-20T11:02:18;11.60;99.90
12655;DHT22;6392;44.644;11.448;2022-11-20T11:04:49;11.60;99.90
12655;DHT22;6392;44.644;11.448;2022-11-20T11:07:19;11.70;99.90
12655;DHT22;6392;44.644;11.448;2022-11-20T11:09:49;11.70;99.90
12655;DHT22;6392;44.644;11.448;2022-11-20T11:12:18;11.70;99.90
12655;DHT22;6392;44.644;11.448;2022-11-20T11:14:48;11.70;99.90
12655;DHT22;6392;44.644;11.448;2022-11-20T11:17:27;11.80;99.90
12655;DHT22;6392;44.644;11.448;2022-11-20T11:20:04;11.80;99.90
12655;DHT22;6392;44.644;11.448;2022-11-20T11:22:33;11.80;99.90
12655;DHT22;6392;44.644;11.448;2022-11-20T11:25:01;11.80;99.90
12655;DHT22;6392;44.644;11.448;2022-11-20T11:27:29;11.90;99.90
12655;DHT22;6392;44.644;11.448;2022-11-20T11:30:13;12.00;99.90
12655;DHT22;6392;44.644;11.448;2022-11-20T11:32:42;12.10;99.90
12655;DHT22;6392;44.644;11.448;2022-11-20T11:35:22;12.10;99.90
12655;DHT22;6392;44.644;11.448;2022-11-20T11:37:51;12.00;99.90
12655;DHT22;6392;44.644;11.448;2022-11-20T11:40:21;12.00;99.90
12655;DHT22;6392;44.644;11.448;2022-11-20T11:42:54;12.10;99.90
12655;DHT22;6392;44.644;11.448;2022-11-20T11:45:24;12.20;99.90
12655;DHT22;6392;44.644;11.448;2022-11-20T11:47:51;12.20;99.90
12655;DHT22;6392;44.644;11.448;2022-11-20T11:50:22;12.20;99.90
12655;DHT22;6392;44.644;11.448;2022-11-20T11:53:09;12.20;99.90
12655;DHT22;6392;44.644;11.448;2022-11-20T11:55:43;12.20;99.90
12655;DHT22;6392;44.644;11.448;2022-11-20T11:58:16;12.20;99.90
12655;DHT22;6392;44.644;11.448;2022-11-20T12:00:51;12.30;99.90
12655;DHT22;6392;44.644;11.448;2022-11-20T12:03:24;12.30;99.90
12655;DHT22;6392;44.644;11.448;2022-11-20T12:05:58;12.30;99.90
12655;DHT22;6392;44.644;11.448;2022-11-20T12:08:30;12.30;99.90
12655;DHT22;6392;44.644;11.448;2022-11-20T12:11:03;12.30;99.90
12655;DHT22;6392;44.644;11.448;2022-11-20T12:13:39;12.40;99.90
12655;DHT22;6392;44.644;11.448;2022-11-20T12:16:10;12.40;99.90
12655;DHT22;6392;44.644;11.448;2022-11-20T12:18:39;12.40;99.90
12655;DHT22;6392;44.644;11.448;2022-11-20T12:21:18;12.50;99.90
12655;DHT22;6392;44.644;11.448;2022-11-20T12:23:58;12.50;99.90
12655;DHT22;6392;44.644;11.448;2022-11-20T12:26:45;12.60;99.90
12655;DHT22;6392;44.644;11.448;2022-11-20T12:29:21;12.70;99.90
12655;DHT22;6392;44.644;11.448;2022-11-20T12:32:06;12.80;99.90
12655;DHT22;6392;44.644;11.448;2022-11-20T12:34:47;12.80;99.90
12655;DHT22;6392;44.644;11.448;2022-11-20T12:37:28;12.90;99.90
12655;DHT22;6392;44.644;11.448;2022-11-20T12:40:02;13.00;99.90
12655;DHT22;6392;44.644;11.448;2022-11-20T12:42:46;13.10;99.90
12655;DHT22;6392;44.644;11.448;2022-11-20T12:46:01;13.20;99.90
12655;DHT22;6392;44.644;11.448;2022-11-20T12:48:56;13.10;99.90
12655;DHT22;6392;44.644;11.448;2022-11-20T12:51:48;13.20;99.90
12655;DHT22;6392;44.644;11.448;2022-11-20T12:57:24;13.40;99.90
12655;DHT22;6392;44.644;11.448;2022-11-20T13:00:07;13.50;99.90
12655;DHT22;6392;44.644;11.448;2022-11-20T13:02:52;13.50;99.90
12655;DHT22;6392;44.644;11.448;2022-11-20T13:05:31;13.60;99.90
12655;DHT22;6392;44.644;11.448;2022-11-20T13:08:00;13.50;99.90
12655;DHT22;6392;44.644;11.448;2022-11-20T13:10:34;13.60;99.90
12655;DHT22;6392;44.644;11.448;2022-11-20T13:13:10;13.60;99.90
12655;DHT22;6392;44.644;11.448;2022-11-20T13:15:51;13.60;99.90
12655;DHT22;6392;44.644;11.448;2022-11-20T13:18:20;13.50;99.90
12655;DHT22;6392;44.644;11.448;2022-11-20T13:20:48;13.40;99.90
12655;DHT22;6392;44.644;11.448;2022-11-20T13:23:25;13.30;99.90
12655;DHT22;6392;44.644;11.448;2022-11-20T13:26:05;13.20;99.90
12655;DHT22;6392;44.644;11.448;2022-11-20T13:28:33;13.20;99.90
12655;DHT22;6392;44.644;11.448;2022-11-20T13:31:00;13.10;99.90
12655;DHT22;6392;44.644;11.448;2022-11-20T13:33:31;13.00;99.90
12655;DHT22;6392;44.644;11.448;2022-11-20T13:36:01;12.90;99.90
12655;DHT22;6392;44.644;11.448;2022-11-20T13:38:39;12.90;99.90
12655;DHT22;6392;44.644;11.448;2022-11-20T13:41:09;12.80;99.90
12655;DHT22;6392;44.644;11.448;2022-11-20T13:43:51;12.80;99.90
12655;DHT22;6392;44.644;11.448;2022-11-20T13:46:19;12.70;99.90
12655;DHT22;6392;44.644;11.448;2022-11-20T13:48:51;12.70;99.90
12655;DHT22;6392;44.644;11.448;2022-11-20T13:51:29;12.70;99.90
12655;DHT22;6392;44.644;11.448;2022-11-20T13:54:14;12.60;99.90
12655;DHT22;6392;44.644;11.448;2022-11-20T13:56:56;12.60;99.90
12655;DHT22;6392;44.644;11.448;2022-11-20T13:59:42;12.60;99.90
12655;DHT22;6392;44.644;11.448;2022-11-20T14:02:14;12.50;99.90
12655;DHT22;6392;44.644;11.448;2022-11-20T14:04:45;12.50;99.90
12655;DHT22;6392;44.644;11.448;2022-11-20T14:07:13;12.50;99.90
12655;DHT22;6392;44.644;11.448;2022-11-20T14:09:49;12.40;99.90
12655;DHT22;6392;44.644;11.448;2022-11-20T14:12:20;12.40;99.90
12655;DHT22;6392;44.644;11.448;2022-11-20T14:14:49;12.40;99.90
12655;DHT22;6392;44.644;11.448;2022-11-20T14:17:18;12.40;99.90
12655;DHT22;6392;44.644;11.448;2022-11-20T14:19:47;12.50;99.90
12655;DHT22;6392;44.644;11.448;2022-11-20T14:22:20;12.50;99.90
12655;DHT22;6392;44.644;11.448;2022-11-20T14:24:48;12.60;99.90
12655;DHT22;6392;44.644;11.448;2022-11-20T14:27:19;12.70;99.90
12655;DHT22;6392;44.644;11.448;2022-11-20T14:29:49;12.70;99.90
12655;DHT22;6392;44.644;11.448;2022-11-20T14:32:18;12.80;99.90
12655;DHT22;6392;44.644;11.448;2022-11-20T14:34:49;12.80;99.90
12655;DHT22;6392;44.644;11.448;2022-11-20T14:37:20;12.90;99.90
12655;DHT22;6392;44.644;11.448;2022-11-20T14:39:50;13.00;99.90
12655;DHT22;6392;44.644;11.448;2022-11-20T14:42:22;13.00;99.90
12655;DHT22;6392;44.644;11.448;2022-11-20T14:44:50;13.00;99.90
12655;DHT22;6392;44.644;11.448;2022-11-20T14:47:20;12.90;99.90
12655;DHT22;6392;44.644;11.448;2022-11-20T14:49:48;12.80;99.90
12655;DHT22;6392;44.644;11.448;2022-11-20T14:52:18;12.80;99.90
12655;DHT22;6392;44.644;11.448;2022-11-20T14:54:46;12.70;99.90
12655;DHT22;6392;44.644;11.448;2022-11-20T14:57:26;12.70;99.90
12655;DHT22;6392;44.644;11.448;2022-11-20T15:00:08;12.70;99.90
12655;DHT22;6392;44.644;11.448;2022-11-20T15:02:46;12.70;99.90
12655;DHT22;6392;44.644;11.448;2022-11-20T15:05:14;12.70;99.90
12655;DHT22;6392;44.644;11.448;2022-11-20T15:07:43;12.60;99.90
12655;DHT22;6392;44.644;11.448;2022-11-20T15:10:13;12.60;99.90
12655;DHT22;6392;44.644;11.448;2022-11-20T15:12:51;12.60;99.90
12655;DHT22;6392;44.644;11.448;2022-11-20T15:15:23;12.50;99.90
12655;DHT22;6392;44.644;11.448;2022-11-20T15:17:52;12.50;99.90
12655;DHT22;6392;44.644;11.448;2022-11-20T15:20:22;12.40;99.90
12655;DHT22;6392;44.644;11.448;2022-11-20T15:22:50;12.30;99.90
12655;DHT22;6392;44.644;11.448;2022-11-20T15:25:18;12.30;99.90
12655;DHT22;6392;44.644;11.448;2022-11-20T15:27:51;12.20;99.90
12655;DHT22;6392;44.644;11.448;2022-11-20T15:30:20;12.10;99.90
12655;DHT22;6392;44.644;11.448;2022-11-20T15:32:47;12.10;99.90
12655;DHT22;6392;44.644;11.448;2022-11-20T15:35:15;12.00;99.90
12655;DHT22;6392;44.644;11.448;2022-11-20T15:37:43;11.90;99.90
12655;DHT22;6392;44.644;11.448;2022-11-20T15:40:10;11.80;99.90
12655;DHT22;6392;44.644;11.448;2022-11-20T15:42:38;11.70;99.90
12655;DHT22;6392;44.644;11.448;2022-11-20T15:45:28;11.70;99.90
12655;DHT22;6392;44.644;11.448;2022-11-20T15:47:56;11.70;99.90
12655;DHT22;6392;44.644;11.448;2022-11-20T15:50:25;11.60;99.90
12655;DHT22;6392;44.644;11.448;2022-11-20T15:52:56;11.50;99.90
12655;DHT22;6392;44.644;11.448;2022-11-20T15:55:23;11.50;99.90
12655;DHT22;6392;44.644;11.448;2022-11-20T15:57:50;11.40;99.90
12655;DHT22;6392;44.644;11.448;2022-11-20T16:00:18;11.30;99.90
12655;DHT22;6392;44.644;11.448;2022-11-20T16:02:47;11.20;99.90
12655;DHT22;6392;44.644;11.448;2022-11-20T16:05:15;11.20;99.90
12655;DHT22;6392;44.644;11.448;2022-11-20T16:07:43;11.20;99.90